Архив погоды в Усть-Куломе

Метеограмма Усть-Кулом
Четверг, 23 Мая
Время местн. Темп Ветер Видим Явления Облачность нижн/средн/верх Атм. давл. Влжн Точка росы ВНГО R Сост. почвы Tg s
Напр Скр Прв ур.ст ур.м изм
06:00 +8.1° З,С-З 2 - 50 км - облачно 738 751 -0.9 64% +1.7° - 0 Влажная (без луж) - -
03:00 +6.6° З 1 - 50 км - облачно 739 752 -1.4 65% +0.5° - - - - -
00:00 +8° Ю 3 - 50 км - облачно 740 753 -1.9 51% -1.4° 600 м - - - -
Среда, 22 Мая
Время местн. Темп Ветер Видим Явления Облачность нижн/средн/верх Атм. давл. Влжн Точка росы ВНГО R Сост. почвы Tg s
Напр Скр Прв ур.ст ур.м изм
21:00 +9.6° В 1 - 50 км - облачно 742 755 -1.3 43% -2.2° 600 м - - - -
18:00 +13.7° С,С-В 1 - 50 км - облачно 744 756 -1.2 24% -6.6° 1 км 0 - - -
15:00 +14.4° С 2 - 50 км - облачно с прояснениями 745 758 -1.6 21% -7.8° 1.5 км - - - -
12:00 +12.9° С-З 3 - 50 км - переменная облачность 746 759 -1.1 21% -8.7° 1.5 км - - - -
09:00 +10.8° С 2 - 50 км - переменная облачность 747 761 -0.5 27% -7.3° 1.5 км - - - -
06:00 +5.9° С,С-З 1 - 50 км - ясно 748 761 -0.2 49% -4° более 2.5 км 0 Влажная (без луж) - -
03:00 -1.8° С 1 - 50 км - ясно 748 762 0 87% -3.7° более 2.5 км - - - -
00:00 +1.3° С,С-В 1 - 50 км - ясно 748 762 -0.1 68% -4° более 2.5 км - - - -
Вторник, 21 Мая
Время местн. Темп Ветер Видим Явления Облачность нижн/средн/верх Атм. давл. Влжн Точка росы ВНГО R Сост. почвы Tg s
Напр Скр Прв ур.ст ур.м изм
21:00 +6.4° С 1 - 50 км - ясно 748 762 -0.2 36% -7.5° более 2.5 км - - - -
18:00 +11.4° С-З 4 - 50 км - переменная облачность 748 762 -0.3 22% -9.8° более 2.5 км 0 - - -
15:00 +11.8° С,С-З 3 - 50 км - переменная облачность 749 762 -0.3 20% -10.3° более 2.5 км - - - -
12:00 +10° С,С-З 5 - 50 км - незначительная облачность 749 762 -0.1 22% -10.8° более 2.5 км - - - -
09:00 +6.6° З,С-З 5 - 50 км - ясно 749 762 -0.1 31% -9.1° более 2.5 км - - - -
06:00 +3.3° С 3 - 50 км - ясно 749 763 +0.3 49% -6.4° более 2.5 км 0 Влажная (без луж) - -
03:00 С,С-З 2 - 50 км - ясно 749 762 +0.5 61% -6.5° более 2.5 км - - - -
00:00 +1.5° С 1 - 50 км - ясно 748 762 +0.2 53% -7.1° более 2.5 км - - - -
Понедельник, 20 Мая
Время местн. Темп Ветер Видим Явления Облачность нижн/средн/верх Атм. давл. Влжн Точка росы ВНГО R Сост. почвы Tg s
Напр Скр Прв ур.ст ур.м изм
21:00 +4.9° С 1 - 50 км - ясно 748 762 +0.6 37% -8.7° более 2.5 км - - - -
18:00 +9.7° С 4 11 более 50 км - переменная облачность 748 761 +0.3 22% -10.9° более 2.5 км 0 - - -
15:00 +10.8° С 5 - 50 км - переменная облачность 747 760 +0.2 22% -9.8° 1.5 км - - - -
12:00 +9.6° С,С-З 4 - 50 км - переменная облачность 747 760 +0.3 28% -7.9° 1.5 км - - - -
09:00 +6.9° С 4 - 50 км - переменная облачность 747 760 0 40% -5.7° 1.5 км - - - -
06:00 +3.9° С 3 - 50 км - ясно 747 760 +0.7 58% -3.6° более 2.5 км 0 Сырая (есть малые или большие лужи) - -
03:00 +0.7° С 2 - 50 км - ясно 746 760 +0.7 83% -1.9° более 2.5 км - - - -